sensor_id;sensor_type;location;lat;lon;timestamp;temperature;humidity
11818;DHT22;5966;52.402;5.322;2022-10-16T00:00:58;13.80;99.90
11818;DHT22;5966;52.402;5.322;2022-10-16T00:03:31;13.80;99.90
11818;DHT22;5966;52.402;5.322;2022-10-16T00:06:00;13.80;99.90
11818;DHT22;5966;52.402;5.322;2022-10-16T00:08:28;13.80;99.90
11818;DHT22;5966;52.402;5.322;2022-10-16T00:11:00;13.80;99.90
11818;DHT22;5966;52.402;5.322;2022-10-16T00:13:30;13.80;99.90
11818;DHT22;5966;52.402;5.322;2022-10-16T00:15:59;13.70;99.90
11818;DHT22;5966;52.402;5.322;2022-10-16T00:18:31;13.70;99.90
11818;DHT22;5966;52.402;5.322;2022-10-16T00:21:12;13.70;99.90
11818;DHT22;5966;52.402;5.322;2022-10-16T00:24:13;13.70;99.90
11818;DHT22;5966;52.402;5.322;2022-10-16T00:26:56;13.70;99.90
11818;DHT22;5966;52.402;5.322;2022-10-16T00:29:25;13.70;99.90
11818;DHT22;5966;52.402;5.322;2022-10-16T00:31:54;13.70;99.90
11818;DHT22;5966;52.402;5.322;2022-10-16T00:34:22;13.70;99.90
11818;DHT22;5966;52.402;5.322;2022-10-16T00:36:49;13.60;99.90
11818;DHT22;5966;52.402;5.322;2022-10-16T00:39:24;13.60;99.90
11818;DHT22;5966;52.402;5.322;2022-10-16T00:42:10;13.60;99.90
11818;DHT22;5966;52.402;5.322;2022-10-16T00:44:53;13.60;99.90
11818;DHT22;5966;52.402;5.322;2022-10-16T00:47:27;13.60;99.90
11818;DHT22;5966;52.402;5.322;2022-10-16T00:50:00;13.60;99.90
11818;DHT22;5966;52.402;5.322;2022-10-16T00:52:53;13.60;99.90
11818;DHT22;5966;52.402;5.322;2022-10-16T00:55:45;13.60;99.90
11818;DHT22;5966;52.402;5.322;2022-10-16T00:58:13;13.60;99.90
11818;DHT22;5966;52.402;5.322;2022-10-16T01:00:43;13.60;99.90
11818;DHT22;5966;52.402;5.322;2022-10-16T01:03:31;13.70;99.90
11818;DHT22;5966;52.402;5.322;2022-10-16T01:06:21;13.70;99.90
11818;DHT22;5966;52.402;5.322;2022-10-16T01:09:13;13.60;99.90
11818;DHT22;5966;52.402;5.322;2022-10-16T01:11:56;13.60;99.90
11818;DHT22;5966;52.402;5.322;2022-10-16T01:14:40;13.70;99.90
11818;DHT22;5966;52.402;5.322;2022-10-16T01:17:18;13.70;99.90
11818;DHT22;5966;52.402;5.322;2022-10-16T01:20:21;13.80;99.90
11818;DHT22;5966;52.402;5.322;2022-10-16T01:23:10;13.80;99.90
11818;DHT22;5966;52.402;5.322;2022-10-16T01:32:05;13.90;99.90
11818;DHT22;5966;52.402;5.322;2022-10-16T01:34:41;13.90;99.90
11818;DHT22;5966;52.402;5.322;2022-10-16T01:37:14;14.00;99.90
11818;DHT22;5966;52.402;5.322;2022-10-16T01:39:46;14.00;99.90
11818;DHT22;5966;52.402;5.322;2022-10-16T01:42:20;14.00;99.90
11818;DHT22;5966;52.402;5.322;2022-10-16T01:45:00;14.00;99.90
11818;DHT22;5966;52.402;5.322;2022-10-16T01:47:31;14.00;99.90
11818;DHT22;5966;52.402;5.322;2022-10-16T01:50:01;14.00;99.90
11818;DHT22;5966;52.402;5.322;2022-10-16T01:52:39;14.00;99.90
11818;DHT22;5966;52.402;5.322;2022-10-16T01:55:13;14.00;99.90
11818;DHT22;5966;52.402;5.322;2022-10-16T01:57:46;14.10;99.90
11818;DHT22;5966;52.402;5.322;2022-10-16T02:00:19;14.10;99.90
11818;DHT22;5966;52.402;5.322;2022-10-16T02:02:52;14.10;99.90
11818;DHT22;5966;52.402;5.322;2022-10-16T02:05:25;14.10;99.90
11818;DHT22;5966;52.402;5.322;2022-10-16T02:07:56;14.10;99.90
11818;DHT22;5966;52.402;5.322;2022-10-16T02:10:28;14.10;99.90
11818;DHT22;5966;52.402;5.322;2022-10-16T02:13:02;14.10;99.90
11818;DHT22;5966;52.402;5.322;2022-10-16T02:15:32;14.20;99.90
11818;DHT22;5966;52.402;5.322;2022-10-16T02:18:02;14.20;99.90
11818;DHT22;5966;52.402;5.322;2022-10-16T02:20:34;14.10;99.90
11818;DHT22;5966;52.402;5.322;2022-10-16T02:23:06;14.10;99.90
11818;DHT22;5966;52.402;5.322;2022-10-16T02:25:38;14.10;99.90
11818;DHT22;5966;52.402;5.322;2022-10-16T02:28:10;14.10;99.90
11818;DHT22;5966;52.402;5.322;2022-10-16T02:30:44;14.10;99.90
11818;DHT22;5966;52.402;5.322;2022-10-16T02:33:15;14.10;99.90
11818;DHT22;5966;52.402;5.322;2022-10-16T02:35:46;14.00;99.90
11818;DHT22;5966;52.402;5.322;2022-10-16T02:38:16;14.00;99.90
11818;DHT22;5966;52.402;5.322;2022-10-16T02:40:45;14.00;99.90
11818;DHT22;5966;52.402;5.322;2022-10-16T02:43:14;14.00;99.90
11818;DHT22;5966;52.402;5.322;2022-10-16T02:45:42;14.00;99.90
11818;DHT22;5966;52.402;5.322;2022-10-16T02:48:10;14.00;99.90
11818;DHT22;5966;52.402;5.322;2022-10-16T02:50:39;14.00;99.90
11818;DHT22;5966;52.402;5.322;2022-10-16T02:53:07;14.00;99.90
11818;DHT22;5966;52.402;5.322;2022-10-16T02:55:35;13.90;99.90
11818;DHT22;5966;52.402;5.322;2022-10-16T02:58:03;13.90;99.90
11818;DHT22;5966;52.402;5.322;2022-10-16T03:00:31;13.90;99.90
11818;DHT22;5966;52.402;5.322;2022-10-16T03:02:59;13.90;99.90
11818;DHT22;5966;52.402;5.322;2022-10-16T03:05:26;13.90;99.90
11818;DHT22;5966;52.402;5.322;2022-10-16T03:07:56;13.90;99.90
11818;DHT22;5966;52.402;5.322;2022-10-16T03:10:26;13.90;99.90
11818;DHT22;5966;52.402;5.322;2022-10-16T03:12:54;13.90;99.90
11818;DHT22;5966;52.402;5.322;2022-10-16T03:15:23;13.90;99.90
11818;DHT22;5966;52.402;5.322;2022-10-16T03:17:52;13.90;99.90
11818;DHT22;5966;52.402;5.322;2022-10-16T03:20:20;13.80;99.90
11818;DHT22;5966;52.402;5.322;2022-10-16T03:22:48;13.80;99.90
11818;DHT22;5966;52.402;5.322;2022-10-16T03:25:17;13.80;99.90
11818;DHT22;5966;52.402;5.322;2022-10-16T03:27:45;13.70;99.90
11818;DHT22;5966;52.402;5.322;2022-10-16T03:30:13;13.70;99.90
11818;DHT22;5966;52.402;5.322;2022-10-16T03:32:42;13.70;99.90
11818;DHT22;5966;52.402;5.322;2022-10-16T03:35:11;13.70;99.90
11818;DHT22;5966;52.402;5.322;2022-10-16T03:37:38;13.70;99.90
11818;DHT22;5966;52.402;5.322;2022-10-16T03:40:07;13.70;99.90
11818;DHT22;5966;52.402;5.322;2022-10-16T03:42:36;13.70;99.90
11818;DHT22;5966;52.402;5.322;2022-10-16T03:45:05;13.70;99.90
11818;DHT22;5966;52.402;5.322;2022-10-16T03:47:33;13.70;99.90
11818;DHT22;5966;52.402;5.322;2022-10-16T03:50:02;13.70;99.90
11818;DHT22;5966;52.402;5.322;2022-10-16T03:52:30;13.70;99.90
11818;DHT22;5966;52.402;5.322;2022-10-16T03:54:59;13.70;99.90
11818;DHT22;5966;52.402;5.322;2022-10-16T03:57:27;13.70;99.90
11818;DHT22;5966;52.402;5.322;2022-10-16T03:59:59;13.70;99.90
11818;DHT22;5966;52.402;5.322;2022-10-16T04:02:27;13.70;99.90
11818;DHT22;5966;52.402;5.322;2022-10-16T04:04:55;13.70;99.90
11818;DHT22;5966;52.402;5.322;2022-10-16T04:07:23;13.70;99.90
11818;DHT22;5966;52.402;5.322;2022-10-16T04:09:51;13.70;99.90
11818;DHT22;5966;52.402;5.322;2022-10-16T04:12:20;13.80;99.90
11818;DHT22;5966;52.402;5.322;2022-10-16T04:14:48;13.80;99.90
11818;DHT22;5966;52.402;5.322;2022-10-16T04:17:18;13.80;99.90
11818;DHT22;5966;52.402;5.322;2022-10-16T04:19:46;13.70;99.90
11818;DHT22;5966;52.402;5.322;2022-10-16T04:22:14;13.70;99.90
11818;DHT22;5966;52.402;5.322;2022-10-16T04:24:42;13.70;99.90
11818;DHT22;5966;52.402;5.322;2022-10-16T04:27:10;13.70;99.90
11818;DHT22;5966;52.402;5.322;2022-10-16T04:29:38;13.70;99.90
11818;DHT22;5966;52.402;5.322;2022-10-16T04:32:08;13.70;99.90
11818;DHT22;5966;52.402;5.322;2022-10-16T04:34:39;13.70;99.90
11818;DHT22;5966;52.402;5.322;2022-10-16T04:37:07;13.70;99.90
11818;DHT22;5966;52.402;5.322;2022-10-16T04:39:35;13.70;99.90
11818;DHT22;5966;52.402;5.322;2022-10-16T04:42:03;13.70;99.90
11818;DHT22;5966;52.402;5.322;2022-10-16T04:44:31;13.70;99.90
11818;DHT22;5966;52.402;5.322;2022-10-16T04:46:59;13.70;99.90
11818;DHT22;5966;52.402;5.322;2022-10-16T04:49:27;13.70;99.90
11818;DHT22;5966;52.402;5.322;2022-10-16T04:51:56;13.70;99.90
11818;DHT22;5966;52.402;5.322;2022-10-16T04:54:24;13.60;99.90
11818;DHT22;5966;52.402;5.322;2022-10-16T04:56:51;13.60;99.90
11818;DHT22;5966;52.402;5.322;2022-10-16T04:59:20;13.60;99.90
11818;DHT22;5966;52.402;5.322;2022-10-16T05:01:49;13.60;99.90
11818;DHT22;5966;52.402;5.322;2022-10-16T05:04:17;13.60;99.90
11818;DHT22;5966;52.402;5.322;2022-10-16T05:06:47;13.60;99.90
11818;DHT22;5966;52.402;5.322;2022-10-16T05:09:16;13.60;99.90
11818;DHT22;5966;52.402;5.322;2022-10-16T05:11:44;13.60;99.90
11818;DHT22;5966;52.402;5.322;2022-10-16T05:14:12;13.60;99.90
11818;DHT22;5966;52.402;5.322;2022-10-16T05:16:40;13.60;99.90
11818;DHT22;5966;52.402;5.322;2022-10-16T05:19:08;13.60;99.90
11818;DHT22;5966;52.402;5.322;2022-10-16T05:21:53;13.70;99.90
11818;DHT22;5966;52.402;5.322;2022-10-16T05:24:23;13.60;99.90
11818;DHT22;5966;52.402;5.322;2022-10-16T05:26:51;13.70;99.90
11818;DHT22;5966;52.402;5.322;2022-10-16T05:29:19;13.70;99.90
11818;DHT22;5966;52.402;5.322;2022-10-16T05:31:50;13.70;99.90
11818;DHT22;5966;52.402;5.322;2022-10-16T05:34:19;13.70;99.90
11818;DHT22;5966;52.402;5.322;2022-10-16T05:36:47;13.70;99.90
11818;DHT22;5966;52.402;5.322;2022-10-16T05:39:16;13.70;99.90
11818;DHT22;5966;52.402;5.322;2022-10-16T05:41:45;13.70;99.90
11818;DHT22;5966;52.402;5.322;2022-10-16T05:44:42;13.70;99.90
11818;DHT22;5966;52.402;5.322;2022-10-16T05:50:44;13.70;99.90
11818;DHT22;5966;52.402;5.322;2022-10-16T05:53:12;13.70;99.90
11818;DHT22;5966;52.402;5.322;2022-10-16T05:55:40;13.70;99.90
11818;DHT22;5966;52.402;5.322;2022-10-16T05:58:09;13.70;99.90
11818;DHT22;5966;52.402;5.322;2022-10-16T06:00:39;13.70;99.90
11818;DHT22;5966;52.402;5.322;2022-10-16T06:03:07;13.70;99.90
11818;DHT22;5966;52.402;5.322;2022-10-16T06:05:36;13.70;99.90
11818;DHT22;5966;52.402;5.322;2022-10-16T06:08:05;13.70;99.90
11818;DHT22;5966;52.402;5.322;2022-10-16T06:10:33;13.70;99.90
11818;DHT22;5966;52.402;5.322;2022-10-16T06:13:01;13.70;99.90
11818;DHT22;5966;52.402;5.322;2022-10-16T06:15:31;13.70;99.90
11818;DHT22;5966;52.402;5.322;2022-10-16T06:17:59;13.70;99.90
11818;DHT22;5966;52.402;5.322;2022-10-16T06:20:27;13.60;99.90
11818;DHT22;5966;52.402;5.322;2022-10-16T06:22:55;13.60;99.90
11818;DHT22;5966;52.402;5.322;2022-10-16T06:25:23;13.60;99.90
11818;DHT22;5966;52.402;5.322;2022-10-16T06:27:51;13.60;99.90
11818;DHT22;5966;52.402;5.322;2022-10-16T06:30:19;13.60;99.90
11818;DHT22;5966;52.402;5.322;2022-10-16T06:32:48;13.60;99.90
11818;DHT22;5966;52.402;5.322;2022-10-16T06:35:16;13.60;99.90
11818;DHT22;5966;52.402;5.322;2022-10-16T06:37:46;13.60;99.90
11818;DHT22;5966;52.402;5.322;2022-10-16T06:40:16;13.60;99.90
11818;DHT22;5966;52.402;5.322;2022-10-16T06:42:44;13.60;99.90
11818;DHT22;5966;52.402;5.322;2022-10-16T06:45:12;13.60;99.90
11818;DHT22;5966;52.402;5.322;2022-10-16T06:47:42;13.60;99.90
11818;DHT22;5966;52.402;5.322;2022-10-16T06:50:12;13.60;99.90
11818;DHT22;5966;52.402;5.322;2022-10-16T06:52:41;13.60;99.90
11818;DHT22;5966;52.402;5.322;2022-10-16T06:55:09;13.60;99.90
11818;DHT22;5966;52.402;5.322;2022-10-16T06:57:37;13.60;99.90
11818;DHT22;5966;52.402;5.322;2022-10-16T07:00:12;13.60;99.90
11818;DHT22;5966;52.402;5.322;2022-10-16T07:02:40;13.50;99.90
11818;DHT22;5966;52.402;5.322;2022-10-16T07:05:12;13.60;99.90
11818;DHT22;5966;52.402;5.322;2022-10-16T07:07:40;13.50;99.90
11818;DHT22;5966;52.402;5.322;2022-10-16T07:10:22;13.60;99.90
11818;DHT22;5966;52.402;5.322;2022-10-16T07:12:50;13.50;99.90
11818;DHT22;5966;52.402;5.322;2022-10-16T07:15:20;13.60;99.90
11818;DHT22;5966;52.402;5.322;2022-10-16T07:17:48;13.50;99.90
11818;DHT22;5966;52.402;5.322;2022-10-16T07:20:17;13.50;99.90
11818;DHT22;5966;52.402;5.322;2022-10-16T07:22:45;13.50;99.90
11818;DHT22;5966;52.402;5.322;2022-10-16T07:25:13;13.50;99.90
11818;DHT22;5966;52.402;5.322;2022-10-16T07:27:41;13.50;99.90
11818;DHT22;5966;52.402;5.322;2022-10-16T07:30:10;13.50;99.90
11818;DHT22;5966;52.402;5.322;2022-10-16T07:32:38;13.50;99.90
11818;DHT22;5966;52.402;5.322;2022-10-16T07:35:23;13.60;99.90
11818;DHT22;5966;52.402;5.322;2022-10-16T07:38:35;13.60;99.90
11818;DHT22;5966;52.402;5.322;2022-10-16T07:41:09;13.60;99.90
11818;DHT22;5966;52.402;5.322;2022-10-16T07:43:47;13.60;99.90
11818;DHT22;5966;52.402;5.322;2022-10-16T07:46:19;13.60;99.90
11818;DHT22;5966;52.402;5.322;2022-10-16T07:49:35;13.60;99.90
11818;DHT22;5966;52.402;5.322;2022-10-16T07:52:16;13.60;99.90
11818;DHT22;5966;52.402;5.322;2022-10-16T07:54:44;13.60;99.90
11818;DHT22;5966;52.402;5.322;2022-10-16T07:57:14;13.60;99.90
11818;DHT22;5966;52.402;5.322;2022-10-16T08:00:12;13.70;99.90
11818;DHT22;5966;52.402;5.322;2022-10-16T08:02:52;13.70;99.90
11818;DHT22;5966;52.402;5.322;2022-10-16T08:05:48;13.80;99.90
11818;DHT22;5966;52.402;5.322;2022-10-16T08:08:26;13.90;99.90
11818;DHT22;5966;52.402;5.322;2022-10-16T08:11:04;13.90;99.90
11818;DHT22;5966;52.402;5.322;2022-10-16T08:13:50;14.00;99.90
11818;DHT22;5966;52.402;5.322;2022-10-16T08:16:51;14.00;99.90
11818;DHT22;5966;52.402;5.322;2022-10-16T08:19:25;14.10;99.90
11818;DHT22;5966;52.402;5.322;2022-10-16T08:22:02;14.10;99.90
11818;DHT22;5966;52.402;5.322;2022-10-16T08:24:39;14.20;99.90
11818;DHT22;5966;52.402;5.322;2022-10-16T08:27:17;14.20;99.90
11818;DHT22;5966;52.402;5.322;2022-10-16T08:30:04;14.30;99.90
11818;DHT22;5966;52.402;5.322;2022-10-16T08:32:35;14.30;99.90
11818;DHT22;5966;52.402;5.322;2022-10-16T08:35:04;14.40;99.90
11818;DHT22;5966;52.402;5.322;2022-10-16T08:37:35;14.40;99.90
11818;DHT22;5966;52.402;5.322;2022-10-16T08:40:15;14.40;99.90
11818;DHT22;5966;52.402;5.322;2022-10-16T08:43:04;14.50;99.90
11818;DHT22;5966;52.402;5.322;2022-10-16T08:49:29;14.50;99.90
11818;DHT22;5966;52.402;5.322;2022-10-16T08:52:13;14.50;99.90
11818;DHT22;5966;52.402;5.322;2022-10-16T08:54:44;14.60;99.90
11818;DHT22;5966;52.402;5.322;2022-10-16T08:57:17;14.60;99.90
11818;DHT22;5966;52.402;5.322;2022-10-16T08:59:53;14.70;99.90
11818;DHT22;5966;52.402;5.322;2022-10-16T09:02:40;14.70;99.90
11818;DHT22;5966;52.402;5.322;2022-10-16T09:05:33;14.70;99.90
11818;DHT22;5966;52.402;5.322;2022-10-16T09:08:15;14.70;99.90
11818;DHT22;5966;52.402;5.322;2022-10-16T09:10:50;14.70;99.90
11818;DHT22;5966;52.402;5.322;2022-10-16T09:13:31;14.70;99.90
11818;DHT22;5966;52.402;5.322;2022-10-16T09:16:16;14.70;99.90
11818;DHT22;5966;52.402;5.322;2022-10-16T09:19:19;14.70;99.90
11818;DHT22;5966;52.402;5.322;2022-10-16T09:21:48;14.80;99.90
11818;DHT22;5966;52.402;5.322;2022-10-16T09:24:26;14.80;99.90
11818;DHT22;5966;52.402;5.322;2022-10-16T09:27:02;14.90;99.90
11818;DHT22;5966;52.402;5.322;2022-10-16T09:29:31;15.00;99.90
11818;DHT22;5966;52.402;5.322;2022-10-16T09:32:10;15.00;99.90
11818;DHT22;5966;52.402;5.322;2022-10-16T09:34:45;15.10;99.90
11818;DHT22;5966;52.402;5.322;2022-10-16T09:37:22;15.20;99.90
11818;DHT22;5966;52.402;5.322;2022-10-16T09:40:12;15.30;99.90
11818;DHT22;5966;52.402;5.322;2022-10-16T09:42:41;15.40;99.90
11818;DHT22;5966;52.402;5.322;2022-10-16T09:45:23;15.40;99.90
11818;DHT22;5966;52.402;5.322;2022-10-16T09:47:51;15.40;99.90
11818;DHT22;5966;52.402;5.322;2022-10-16T09:50:25;15.40;99.90
11818;DHT22;5966;52.402;5.322;2022-10-16T09:53:08;15.40;99.90
11818;DHT22;5966;52.402;5.322;2022-10-16T09:55:48;15.40;99.90
11818;DHT22;5966;52.402;5.322;2022-10-16T09:58:17;15.50;99.90
11818;DHT22;5966;52.402;5.322;2022-10-16T10:00:54;15.50;99.90
11818;DHT22;5966;52.402;5.322;2022-10-16T10:03:36;15.50;99.90
11818;DHT22;5966;52.402;5.322;2022-10-16T10:06:21;15.50;99.90
11818;DHT22;5966;52.402;5.322;2022-10-16T10:09:06;15.60;99.90
11818;DHT22;5966;52.402;5.322;2022-10-16T10:11:48;15.60;99.90
11818;DHT22;5966;52.402;5.322;2022-10-16T10:14:30;15.70;99.90
11818;DHT22;5966;52.402;5.322;2022-10-16T10:17:26;15.70;99.90
11818;DHT22;5966;52.402;5.322;2022-10-16T10:19:59;15.90;99.90
11818;DHT22;5966;52.402;5.322;2022-10-16T10:22:42;15.90;99.90
11818;DHT22;5966;52.402;5.322;2022-10-16T10:28:21;15.90;99.90
11818;DHT22;5966;52.402;5.322;2022-10-16T10:31:00;16.00;99.90
11818;DHT22;5966;52.402;5.322;2022-10-16T10:33:43;16.00;99.90
11818;DHT22;5966;52.402;5.322;2022-10-16T10:36:23;16.10;99.90
11818;DHT22;5966;52.402;5.322;2022-10-16T10:39:01;16.20;99.90
11818;DHT22;5966;52.402;5.322;2022-10-16T10:44:46;16.30;99.90
11818;DHT22;5966;52.402;5.322;2022-10-16T10:47:26;16.30;99.90
11818;DHT22;5966;52.402;5.322;2022-10-16T10:50:05;16.30;99.90
11818;DHT22;5966;52.402;5.322;2022-10-16T10:52:45;16.40;99.90
11818;DHT22;5966;52.402;5.322;2022-10-16T10:55:23;16.40;99.90
11818;DHT22;5966;52.402;5.322;2022-10-16T10:58:15;16.40;99.90
11818;DHT22;5966;52.402;5.322;2022-10-16T11:00:54;16.40;99.90
11818;DHT22;5966;52.402;5.322;2022-10-16T11:03:42;16.30;99.90
11818;DHT22;5966;52.402;5.322;2022-10-16T11:06:18;16.30;99.90
11818;DHT22;5966;52.402;5.322;2022-10-16T11:08:55;16.30;99.90
11818;DHT22;5966;52.402;5.322;2022-10-16T11:11:32;16.30;99.90
11818;DHT22;5966;52.402;5.322;2022-10-16T11:14:09;16.40;99.90
11818;DHT22;5966;52.402;5.322;2022-10-16T11:16:45;16.40;99.90
11818;DHT22;5966;52.402;5.322;2022-10-16T11:19:43;16.40;99.90
11818;DHT22;5966;52.402;5.322;2022-10-16T11:22:44;16.40;99.90
11818;DHT22;5966;52.402;5.322;2022-10-16T11:25:19;16.50;99.90
11818;DHT22;5966;52.402;5.322;2022-10-16T11:27:51;16.50;99.90
11818;DHT22;5966;52.402;5.322;2022-10-16T11:30:28;16.50;99.90
11818;DHT22;5966;52.402;5.322;2022-10-16T11:33:19;16.50;99.90
11818;DHT22;5966;52.402;5.322;2022-10-16T11:35:55;16.40;99.90
11818;DHT22;5966;52.402;5.322;2022-10-16T11:41:47;16.50;99.90
11818;DHT22;5966;52.402;5.322;2022-10-16T11:44:24;16.60;99.90
11818;DHT22;5966;52.402;5.322;2022-10-16T11:47:01;16.70;99.90
11818;DHT22;5966;52.402;5.322;2022-10-16T11:50:13;16.70;99.90
11818;DHT22;5966;52.402;5.322;2022-10-16T11:53:13;16.90;99.90
11818;DHT22;5966;52.402;5.322;2022-10-16T11:55:52;17.00;99.90
11818;DHT22;5966;52.402;5.322;2022-10-16T11:58:27;17.10;99.90
11818;DHT22;5966;52.402;5.322;2022-10-16T12:01:15;17.10;99.90
11818;DHT22;5966;52.402;5.322;2022-10-16T12:04:11;17.10;99.90
11818;DHT22;5966;52.402;5.322;2022-10-16T12:07:31;17.10;99.90
11818;DHT22;5966;52.402;5.322;2022-10-16T12:10:23;17.00;99.90
11818;DHT22;5966;52.402;5.322;2022-10-16T12:13:33;17.00;99.90
11818;DHT22;5966;52.402;5.322;2022-10-16T12:16:38;17.00;99.90
11818;DHT22;5966;52.402;5.322;2022-10-16T12:19:15;17.00;99.90
11818;DHT22;5966;52.402;5.322;2022-10-16T12:21:45;17.00;99.90
11818;DHT22;5966;52.402;5.322;2022-10-16T12:24:35;17.00;99.90
11818;DHT22;5966;52.402;5.322;2022-10-16T12:27:23;17.00;99.90
11818;DHT22;5966;52.402;5.322;2022-10-16T12:29:59;17.00;99.90
11818;DHT22;5966;52.402;5.322;2022-10-16T12:32:32;17.00;99.90
11818;DHT22;5966;52.402;5.322;2022-10-16T12:35:19;17.00;99.90
11818;DHT22;5966;52.402;5.322;2022-10-16T12:37:48;17.00;99.90
11818;DHT22;5966;52.402;5.322;2022-10-16T12:40:34;17.00;99.90
11818;DHT22;5966;52.402;5.322;2022-10-16T12:43:28;17.00;99.90
11818;DHT22;5966;52.402;5.322;2022-10-16T12:46:20;17.10;99.90
11818;DHT22;5966;52.402;5.322;2022-10-16T12:48:51;17.10;99.90
11818;DHT22;5966;52.402;5.322;2022-10-16T12:51:37;17.20;99.90
11818;DHT22;5966;52.402;5.322;2022-10-16T12:54:13;17.20;99.90
11818;DHT22;5966;52.402;5.322;2022-10-16T12:56:51;17.20;99.90
11818;DHT22;5966;52.402;5.322;2022-10-16T12:59:47;17.30;99.90
11818;DHT22;5966;52.402;5.322;2022-10-16T13:03:11;17.30;99.90
11818;DHT22;5966;52.402;5.322;2022-10-16T13:06:10;17.30;99.90
11818;DHT22;5966;52.402;5.322;2022-10-16T13:16:23;17.30;99.90
11818;DHT22;5966;52.402;5.322;2022-10-16T13:19:06;17.30;99.90
11818;DHT22;5966;52.402;5.322;2022-10-16T13:21:50;17.30;99.90
11818;DHT22;5966;52.402;5.322;2022-10-16T13:24:30;17.20;99.90
11818;DHT22;5966;52.402;5.322;2022-10-16T13:27:07;17.20;99.90
11818;DHT22;5966;52.402;5.322;2022-10-16T13:29:41;17.10;99.90
11818;DHT22;5966;52.402;5.322;2022-10-16T13:32:17;17.10;99.90
11818;DHT22;5966;52.402;5.322;2022-10-16T13:35:03;17.10;99.90
11818;DHT22;5966;52.402;5.322;2022-10-16T13:37:46;17.20;99.90
11818;DHT22;5966;52.402;5.322;2022-10-16T13:40:33;17.20;99.90
11818;DHT22;5966;52.402;5.322;2022-10-16T13:43:01;17.20;99.90
11818;DHT22;5966;52.402;5.322;2022-10-16T13:45:29;17.20;99.90
11818;DHT22;5966;52.402;5.322;2022-10-16T13:48:04;17.20;99.90
11818;DHT22;5966;52.402;5.322;2022-10-16T13:51:12;17.20;99.90
11818;DHT22;5966;52.402;5.322;2022-10-16T13:53:42;17.20;99.90
11818;DHT22;5966;52.402;5.322;2022-10-16T13:56:14;17.10;99.90
11818;DHT22;5966;52.402;5.322;2022-10-16T13:58:45;17.20;99.90
11818;DHT22;5966;52.402;5.322;2022-10-16T14:01:17;17.20;99.90
11818;DHT22;5966;52.402;5.322;2022-10-16T14:03:48;17.20;99.90
11818;DHT22;5966;52.402;5.322;2022-10-16T14:06:21;17.10;99.90
11818;DHT22;5966;52.402;5.322;2022-10-16T14:08:59;17.10;99.90
11818;DHT22;5966;52.402;5.322;2022-10-16T14:11:27;17.10;99.90
11818;DHT22;5966;52.402;5.322;2022-10-16T14:13:56;17.10;99.90
11818;DHT22;5966;52.402;5.322;2022-10-16T14:16:30;17.10;99.90
11818;DHT22;5966;52.402;5.322;2022-10-16T14:19:00;17.00;99.90
11818;DHT22;5966;52.402;5.322;2022-10-16T14:21:34;17.00;99.90
11818;DHT22;5966;52.402;5.322;2022-10-16T14:24:11;17.00;99.90
11818;DHT22;5966;52.402;5.322;2022-10-16T14:26:43;17.00;99.90
11818;DHT22;5966;52.402;5.322;2022-10-16T14:29:18;17.00;99.90
11818;DHT22;5966;52.402;5.322;2022-10-16T14:31:55;17.00;99.90
11818;DHT22;5966;52.402;5.322;2022-10-16T14:34:25;17.00;99.90
11818;DHT22;5966;52.402;5.322;2022-10-16T14:36:55;17.00;99.90
11818;DHT22;5966;52.402;5.322;2022-10-16T14:39:25;17.00;99.90
11818;DHT22;5966;52.402;5.322;2022-10-16T14:41:55;17.00;99.90
11818;DHT22;5966;52.402;5.322;2022-10-16T14:44:28;17.00;99.90
11818;DHT22;5966;52.402;5.322;2022-10-16T14:46:57;17.00;99.90
11818;DHT22;5966;52.402;5.322;2022-10-16T14:49:26;17.00;99.90
11818;DHT22;5966;52.402;5.322;2022-10-16T14:51:57;16.90;99.90
11818;DHT22;5966;52.402;5.322;2022-10-16T14:54:27;16.90;99.90
11818;DHT22;5966;52.402;5.322;2022-10-16T14:57:00;16.90;99.90
11818;DHT22;5966;52.402;5.322;2022-10-16T14:59:33;16.80;99.90
11818;DHT22;5966;52.402;5.322;2022-10-16T15:02:16;16.80;99.90
11818;DHT22;5966;52.402;5.322;2022-10-16T15:04:47;16.80;99.90
11818;DHT22;5966;52.402;5.322;2022-10-16T15:07:21;16.70;99.90
11818;DHT22;5966;52.402;5.322;2022-10-16T15:09:50;16.70;99.90
11818;DHT22;5966;52.402;5.322;2022-10-16T15:12:18;16.70;99.90
11818;DHT22;5966;52.402;5.322;2022-10-16T15:14:47;16.70;99.90
11818;DHT22;5966;52.402;5.322;2022-10-16T15:17:20;16.70;99.90
11818;DHT22;5966;52.402;5.322;2022-10-16T15:20:23;16.70;99.90
11818;DHT22;5966;52.402;5.322;2022-10-16T15:22:56;16.70;99.90
11818;DHT22;5966;52.402;5.322;2022-10-16T15:25:41;16.70;99.90
11818;DHT22;5966;52.402;5.322;2022-10-16T15:28:12;16.60;99.90
11818;DHT22;5966;52.402;5.322;2022-10-16T15:30:41;16.60;99.90
11818;DHT22;5966;52.402;5.322;2022-10-16T15:33:18;16.60;99.90
11818;DHT22;5966;52.402;5.322;2022-10-16T15:35:50;16.60;99.90
11818;DHT22;5966;52.402;5.322;2022-10-16T15:38:22;16.60;99.90
11818;DHT22;5966;52.402;5.322;2022-10-16T15:40:54;16.60;99.90
11818;DHT22;5966;52.402;5.322;2022-10-16T15:43:24;16.50;99.90
11818;DHT22;5966;52.402;5.322;2022-10-16T15:46:00;16.50;99.90
11818;DHT22;5966;52.402;5.322;2022-10-16T15:48:45;16.50;99.90
11818;DHT22;5966;52.402;5.322;2022-10-16T15:51:27;16.50;99.90
11818;DHT22;5966;52.402;5.322;2022-10-16T15:54:13;16.40;99.90
11818;DHT22;5966;52.402;5.322;2022-10-16T15:56:41;16.40;99.90
11818;DHT22;5966;52.402;5.322;2022-10-16T15:59:15;16.40;99.90
11818;DHT22;5966;52.402;5.322;2022-10-16T16:01:45;16.30;99.90
11818;DHT22;5966;52.402;5.322;2022-10-16T16:04:13;16.30;99.90
11818;DHT22;5966;52.402;5.322;2022-10-16T16:07:03;16.30;99.90
11818;DHT22;5966;52.402;5.322;2022-10-16T16:09:39;16.20;99.90
11818;DHT22;5966;52.402;5.322;2022-10-16T16:12:09;16.10;99.90
11818;DHT22;5966;52.402;5.322;2022-10-16T16:15:00;16.10;99.90
11818;DHT22;5966;52.402;5.322;2022-10-16T16:17:37;16.10;99.90
11818;DHT22;5966;52.402;5.322;2022-10-16T16:20:19;16.00;99.90
11818;DHT22;5966;52.402;5.322;2022-10-16T16:22:53;16.00;99.90
11818;DHT22;5966;52.402;5.322;2022-10-16T16:25:38;15.90;99.90
11818;DHT22;5966;52.402;5.322;2022-10-16T16:28:14;15.90;99.90
11818;DHT22;5966;52.402;5.322;2022-10-16T16:31:01;15.80;99.90
11818;DHT22;5966;52.402;5.322;2022-10-16T16:33:58;15.80;99.90
11818;DHT22;5966;52.402;5.322;2022-10-16T16:36:26;15.70;99.90
11818;DHT22;5966;52.402;5.322;2022-10-16T16:38:59;15.60;99.90
11818;DHT22;5966;52.402;5.322;2022-10-16T16:41:30;15.50;99.90
11818;DHT22;5966;52.402;5.322;2022-10-16T16:44:06;15.50;99.90
11818;DHT22;5966;52.402;5.322;2022-10-16T16:46:38;15.40;99.90
11818;DHT22;5966;52.402;5.322;2022-10-16T16:49:10;15.40;99.90
11818;DHT22;5966;52.402;5.322;2022-10-16T16:51:41;15.30;99.90
11818;DHT22;5966;52.402;5.322;2022-10-16T16:54:12;15.30;99.90
11818;DHT22;5966;52.402;5.322;2022-10-16T16:56:43;15.20;99.90
11818;DHT22;5966;52.402;5.322;2022-10-16T16:59:14;15.20;99.90
11818;DHT22;5966;52.402;5.322;2022-10-16T17:04:42;15.10;99.90
11818;DHT22;5966;52.402;5.322;2022-10-16T17:07:12;15.10;99.90
11818;DHT22;5966;52.402;5.322;2022-10-16T17:09:46;15.00;99.90
11818;DHT22;5966;52.402;5.322;2022-10-16T17:12:15;15.00;99.90